TAF and METAR

Decoding for American and Canadian METARs and TAFs is not fully implemented.

Could not understand the following METAR

PAEI 191456Z AUTO 00000KT 10SM FEW100 01/M03 A2959 RMK AO2 PRESRR SLP028 T00131034 52047 $

TAF for Eielson Air Force Base

TAF AMD PAEI 191500Z 1915/2018 18009KT 9999 BKN110 BKN160 611101 QNH2935INS BECMG 1917/1918 27012G18KT 8000 -SHSN BKN015 BKN060 610159 QNH2960INS TEMPO 1919/2003 27020G25KT BECMG 2002/2003 VRB06KT 9999 NSW BKN020 610208 QNH2968INS BECMG 2016/2017 06006KT 6000 -SHSN BKN020 610208 QNH2973INS TX03/1917Z TNM05/2006Z
Report created 19. mar 16:00

between 19. mar 16:00 - 20. mar 19:00

wind 9 knots from S (180°) visibility > 10km broken clouds (~75% cover) at 11000 feet broken clouds (~75% cover) at 16000 feet
Eielson Air Force Base in United States of America at 167m

Latest 5 airports